sensor_id;sensor_type;location;lat;lon;timestamp;pressure;altitude;pressure_sealevel;temperature;humidity
72118;BME280;59992;47.490;8.736;2023-05-16T00:00:25;96298.70;;;10.04;99.75
72118;BME280;59992;47.490;8.736;2023-05-16T00:03:16;96299.85;;;10.05;100.00
72118;BME280;59992;47.490;8.736;2023-05-16T00:06:07;96296.15;;;10.06;99.30
72118;BME280;59992;47.490;8.736;2023-05-16T00:08:58;96298.66;;;10.08;99.97
72118;BME280;59992;47.490;8.736;2023-05-16T00:11:48;96292.38;;;10.08;99.72
72118;BME280;59992;47.490;8.736;2023-05-16T00:14:38;96295.19;;;10.08;99.07
72118;BME280;59992;47.490;8.736;2023-05-16T00:17:28;96293.65;;;10.07;98.49
72118;BME280;59992;47.490;8.736;2023-05-16T00:20:18;96292.81;;;10.06;99.84
72118;BME280;59992;47.490;8.736;2023-05-16T00:23:11;96290.71;;;10.08;100.00
72118;BME280;59992;47.490;8.736;2023-05-16T00:26:02;96288.55;;;10.09;100.00
72118;BME280;59992;47.490;8.736;2023-05-16T00:28:53;96284.61;;;10.09;99.95
72118;BME280;59992;47.490;8.736;2023-05-16T00:31:43;96284.67;;;10.09;99.59
72118;BME280;59992;47.490;8.736;2023-05-16T00:34:33;96286.52;;;10.10;98.84
72118;BME280;59992;47.490;8.736;2023-05-16T00:37:24;96285.48;;;10.11;98.62
72118;BME280;59992;47.490;8.736;2023-05-16T00:40:14;96283.84;;;10.12;98.33
72118;BME280;59992;47.490;8.736;2023-05-16T00:43:04;96282.48;;;10.13;99.73
72118;BME280;59992;47.490;8.736;2023-05-16T00:45:54;96279.75;;;10.12;100.00
72118;BME280;59992;47.490;8.736;2023-05-16T00:48:45;96279.67;;;10.13;100.00
72118;BME280;59992;47.490;8.736;2023-05-16T00:51:36;96277.27;;;10.14;100.00
72118;BME280;59992;47.490;8.736;2023-05-16T00:54:28;96280.02;;;10.16;100.00
72118;BME280;59992;47.490;8.736;2023-05-16T00:57:19;96278.06;;;10.18;100.00
72118;BME280;59992;47.490;8.736;2023-05-16T01:00:10;96276.03;;;10.20;100.00
72118;BME280;59992;47.490;8.736;2023-05-16T01:03:04;96272.34;;;10.21;100.00
72118;BME280;59992;47.490;8.736;2023-05-16T01:05:54;96270.38;;;10.22;100.00
72118;BME280;59992;47.490;8.736;2023-05-16T01:08:44;96272.72;;;10.22;100.00
72118;BME280;59992;47.490;8.736;2023-05-16T01:11:37;96273.58;;;10.24;100.00
72118;BME280;59992;47.490;8.736;2023-05-16T01:14:37;96271.29;;;10.23;100.00
72118;BME280;59992;47.490;8.736;2023-05-16T01:17:37;96266.45;;;10.23;100.00
72118;BME280;59992;47.490;8.736;2023-05-16T01:20:39;96270.09;;;10.24;100.00
72118;BME280;59992;47.490;8.736;2023-05-16T01:23:44;96268.04;;;10.23;100.00
72118;BME280;59992;47.490;8.736;2023-05-16T01:26:37;96264.63;;;10.22;100.00
72118;BME280;59992;47.490;8.736;2023-05-16T01:29:27;96266.38;;;10.23;100.00
72118;BME280;59992;47.490;8.736;2023-05-16T01:32:17;96267.28;;;10.23;100.00
72118;BME280;59992;47.490;8.736;2023-05-16T01:35:12;96268.80;;;10.23;100.00
72118;BME280;59992;47.490;8.736;2023-05-16T01:38:07;96269.57;;;10.24;99.93
72118;BME280;59992;47.490;8.736;2023-05-16T01:41:10;96266.60;;;10.23;99.49
72118;BME280;59992;47.490;8.736;2023-05-16T01:44:10;96269.10;;;10.23;99.36
72118;BME280;59992;47.490;8.736;2023-05-16T01:47:05;96271.01;;;10.24;99.01
72118;BME280;59992;47.490;8.736;2023-05-16T01:49:59;96264.57;;;10.24;100.00
72118;BME280;59992;47.490;8.736;2023-05-16T01:52:57;96262.24;;;10.25;100.00
72118;BME280;59992;47.490;8.736;2023-05-16T01:55:48;96263.16;;;10.27;100.00
72118;BME280;59992;47.490;8.736;2023-05-16T01:58:41;96261.20;;;10.27;100.00
72118;BME280;59992;47.490;8.736;2023-05-16T02:01:31;96262.65;;;10.29;100.00
72118;BME280;59992;47.490;8.736;2023-05-16T02:04:22;96264.71;;;10.31;100.00
72118;BME280;59992;47.490;8.736;2023-05-16T02:07:13;96259.88;;;10.32;100.00
72118;BME280;59992;47.490;8.736;2023-05-16T02:10:04;96259.58;;;10.33;100.00
72118;BME280;59992;47.490;8.736;2023-05-16T02:12:55;96258.98;;;10.34;100.00
72118;BME280;59992;47.490;8.736;2023-05-16T02:15:44;96259.69;;;10.35;100.00
72118;BME280;59992;47.490;8.736;2023-05-16T02:18:35;96260.84;;;10.38;99.97
72118;BME280;59992;47.490;8.736;2023-05-16T02:21:25;96265.72;;;10.41;99.72
72118;BME280;59992;47.490;8.736;2023-05-16T02:24:14;96263.45;;;10.42;99.98
72118;BME280;59992;47.490;8.736;2023-05-16T02:27:05;96261.94;;;10.43;99.83
72118;BME280;59992;47.490;8.736;2023-05-16T02:29:55;96261.80;;;10.45;99.98
72118;BME280;59992;47.490;8.736;2023-05-16T02:32:45;96259.00;;;10.44;99.88
72118;BME280;59992;47.490;8.736;2023-05-16T02:35:36;96255.30;;;10.45;99.78
72118;BME280;59992;47.490;8.736;2023-05-16T02:38:27;96250.81;;;10.43;99.93
72118;BME280;59992;47.490;8.736;2023-05-16T02:41:17;96251.27;;;10.43;100.00
72118;BME280;59992;47.490;8.736;2023-05-16T02:44:07;96249.85;;;10.46;100.00
72118;BME280;59992;47.490;8.736;2023-05-16T02:46:57;96249.19;;;10.48;100.00
72118;BME280;59992;47.490;8.736;2023-05-16T02:49:47;96246.91;;;10.48;100.00
72118;BME280;59992;47.490;8.736;2023-05-16T02:52:37;96243.41;;;10.45;100.00
72118;BME280;59992;47.490;8.736;2023-05-16T02:55:27;96244.70;;;10.45;100.00
72118;BME280;59992;47.490;8.736;2023-05-16T02:58:17;96242.27;;;10.46;100.00
72118;BME280;59992;47.490;8.736;2023-05-16T03:01:08;96238.59;;;10.48;100.00
72118;BME280;59992;47.490;8.736;2023-05-16T03:03:59;96238.03;;;10.46;100.00
72118;BME280;59992;47.490;8.736;2023-05-16T03:06:50;96235.30;;;10.44;100.00
72118;BME280;59992;47.490;8.736;2023-05-16T03:09:40;96230.23;;;10.44;100.00
72118;BME280;59992;47.490;8.736;2023-05-16T03:12:30;96225.23;;;10.44;100.00
72118;BME280;59992;47.490;8.736;2023-05-16T03:15:20;96227.05;;;10.44;100.00
72118;BME280;59992;47.490;8.736;2023-05-16T03:18:11;96228.34;;;10.45;100.00
72118;BME280;59992;47.490;8.736;2023-05-16T03:21:01;96227.88;;;10.44;100.00
72118;BME280;59992;47.490;8.736;2023-05-16T03:23:51;96223.86;;;10.42;100.00
72118;BME280;59992;47.490;8.736;2023-05-16T03:26:42;96230.41;;;10.40;100.00
72118;BME280;59992;47.490;8.736;2023-05-16T03:29:33;96227.11;;;10.33;100.00
72118;BME280;59992;47.490;8.736;2023-05-16T03:32:24;96236.77;;;10.37;100.00
72118;BME280;59992;47.490;8.736;2023-05-16T03:35:14;96237.80;;;10.36;100.00
72118;BME280;59992;47.490;8.736;2023-05-16T03:38:04;96232.52;;;10.39;100.00
72118;BME280;59992;47.490;8.736;2023-05-16T03:40:54;96227.85;;;10.40;100.00
72118;BME280;59992;47.490;8.736;2023-05-16T03:43:45;96228.63;;;10.42;100.00
72118;BME280;59992;47.490;8.736;2023-05-16T03:46:35;96229.84;;;10.43;100.00
72118;BME280;59992;47.490;8.736;2023-05-16T03:49:26;96226.89;;;10.43;100.00
72118;BME280;59992;47.490;8.736;2023-05-16T03:52:16;96225.36;;;10.43;100.00
72118;BME280;59992;47.490;8.736;2023-05-16T03:55:08;96227.14;;;10.45;100.00
72118;BME280;59992;47.490;8.736;2023-05-16T03:57:58;96227.60;;;10.47;100.00
72118;BME280;59992;47.490;8.736;2023-05-16T04:00:48;96234.34;;;10.47;100.00
72118;BME280;59992;47.490;8.736;2023-05-16T04:03:38;96235.19;;;10.49;100.00
72118;BME280;59992;47.490;8.736;2023-05-16T04:06:29;96234.83;;;10.50;100.00
72118;BME280;59992;47.490;8.736;2023-05-16T04:09:20;96241.55;;;10.51;100.00
72118;BME280;59992;47.490;8.736;2023-05-16T04:12:10;96245.59;;;10.53;100.00
72118;BME280;59992;47.490;8.736;2023-05-16T04:15:01;96250.38;;;10.54;100.00
72118;BME280;59992;47.490;8.736;2023-05-16T04:17:51;96248.04;;;10.55;100.00
72118;BME280;59992;47.490;8.736;2023-05-16T04:20:42;96248.66;;;10.58;100.00
72118;BME280;59992;47.490;8.736;2023-05-16T04:23:35;96247.04;;;10.62;100.00
72118;BME280;59992;47.490;8.736;2023-05-16T04:26:25;96248.13;;;10.67;100.00
72118;BME280;59992;47.490;8.736;2023-05-16T04:29:15;96251.81;;;10.74;100.00
72118;BME280;59992;47.490;8.736;2023-05-16T04:32:06;96248.30;;;10.81;100.00
72118;BME280;59992;47.490;8.736;2023-05-16T04:34:57;96247.25;;;10.92;100.00
72118;BME280;59992;47.490;8.736;2023-05-16T04:37:48;96248.15;;;11.03;100.00
72118;BME280;59992;47.490;8.736;2023-05-16T04:40:38;96253.64;;;11.10;99.78
72118;BME280;59992;47.490;8.736;2023-05-16T04:43:29;96253.44;;;11.15;99.12
72118;BME280;59992;47.490;8.736;2023-05-16T04:46:19;96249.45;;;11.20;98.68
72118;BME280;59992;47.490;8.736;2023-05-16T04:49:09;96249.77;;;11.23;98.23
72118;BME280;59992;47.490;8.736;2023-05-16T04:52:01;96254.48;;;11.25;98.14
72118;BME280;59992;47.490;8.736;2023-05-16T04:54:52;96251.15;;;11.26;98.63
72118;BME280;59992;47.490;8.736;2023-05-16T04:57:42;96252.67;;;11.28;98.29
72118;BME280;59992;47.490;8.736;2023-05-16T05:00:33;96256.48;;;11.30;97.94
72118;BME280;59992;47.490;8.736;2023-05-16T05:03:24;96253.54;;;11.34;97.51
72118;BME280;59992;47.490;8.736;2023-05-16T05:06:14;96253.64;;;11.37;97.93
72118;BME280;59992;47.490;8.736;2023-05-16T05:09:04;96252.73;;;11.42;97.72
72118;BME280;59992;47.490;8.736;2023-05-16T05:11:54;96258.00;;;11.46;97.24
72118;BME280;59992;47.490;8.736;2023-05-16T05:14:44;96253.83;;;11.47;96.44
72118;BME280;59992;47.490;8.736;2023-05-16T05:17:35;96255.42;;;11.50;95.61
72118;BME280;59992;47.490;8.736;2023-05-16T05:20:27;96259.48;;;11.52;95.62
72118;BME280;59992;47.490;8.736;2023-05-16T05:23:17;96259.46;;;11.52;94.99
72118;BME280;59992;47.490;8.736;2023-05-16T05:26:08;96265.92;;;11.54;94.94
72118;BME280;59992;47.490;8.736;2023-05-16T05:28:58;96269.71;;;11.53;94.60
72118;BME280;59992;47.490;8.736;2023-05-16T05:31:48;96269.10;;;11.54;93.94
72118;BME280;59992;47.490;8.736;2023-05-16T05:34:38;96268.58;;;11.56;94.21
72118;BME280;59992;47.490;8.736;2023-05-16T05:37:28;96269.34;;;11.54;93.31
72118;BME280;59992;47.490;8.736;2023-05-16T05:40:19;96266.46;;;11.54;93.45
72118;BME280;59992;47.490;8.736;2023-05-16T05:43:09;96263.80;;;11.53;93.83
72118;BME280;59992;47.490;8.736;2023-05-16T05:45:59;96264.18;;;11.56;94.64
72118;BME280;59992;47.490;8.736;2023-05-16T05:48:49;96267.23;;;11.56;95.62
72118;BME280;59992;47.490;8.736;2023-05-16T05:51:39;96263.89;;;11.60;95.06
72118;BME280;59992;47.490;8.736;2023-05-16T05:54:30;96263.00;;;11.63;94.38
72118;BME280;59992;47.490;8.736;2023-05-16T05:57:20;96264.48;;;11.65;94.05
72118;BME280;59992;47.490;8.736;2023-05-16T06:00:12;96265.19;;;11.69;94.34
72118;BME280;59992;47.490;8.736;2023-05-16T06:03:02;96267.48;;;11.74;94.15
72118;BME280;59992;47.490;8.736;2023-05-16T06:05:53;96267.64;;;11.79;93.19
72118;BME280;59992;47.490;8.736;2023-05-16T06:08:43;96266.29;;;11.87;93.31
72118;BME280;59992;47.490;8.736;2023-05-16T06:11:33;96269.12;;;11.92;92.30
72118;BME280;59992;47.490;8.736;2023-05-16T06:14:26;96268.98;;;11.96;92.10
72118;BME280;59992;47.490;8.736;2023-05-16T06:17:17;96274.53;;;12.00;91.60
72118;BME280;59992;47.490;8.736;2023-05-16T06:20:08;96272.88;;;12.06;91.60
72118;BME280;59992;47.490;8.736;2023-05-16T06:22:58;96277.75;;;12.12;91.44
72118;BME280;59992;47.490;8.736;2023-05-16T06:25:48;96279.52;;;12.19;91.50
72118;BME280;59992;47.490;8.736;2023-05-16T06:28:39;96278.98;;;12.20;89.11
72118;BME280;59992;47.490;8.736;2023-05-16T06:31:28;96285.15;;;12.21;88.51
72118;BME280;59992;47.490;8.736;2023-05-16T06:34:19;96283.77;;;12.25;90.09
72118;BME280;59992;47.490;8.736;2023-05-16T06:37:15;96285.08;;;12.31;90.98
72118;BME280;59992;47.490;8.736;2023-05-16T06:40:07;96284.77;;;12.37;89.54
72118;BME280;59992;47.490;8.736;2023-05-16T06:42:58;96286.77;;;12.42;90.01
72118;BME280;59992;47.490;8.736;2023-05-16T06:45:48;96282.75;;;12.48;89.51
72118;BME280;59992;47.490;8.736;2023-05-16T06:48:38;96282.06;;;12.54;89.22
72118;BME280;59992;47.490;8.736;2023-05-16T06:51:28;96280.48;;;12.63;88.49
72118;BME280;59992;47.490;8.736;2023-05-16T06:54:18;96277.67;;;12.74;88.86
72118;BME280;59992;47.490;8.736;2023-05-16T06:57:08;96278.20;;;12.86;89.31
72118;BME280;59992;47.490;8.736;2023-05-16T06:59:58;96278.05;;;12.94;87.82
72118;BME280;59992;47.490;8.736;2023-05-16T07:02:49;96282.60;;;13.03;88.19
72118;BME280;59992;47.490;8.736;2023-05-16T07:05:39;96284.58;;;13.13;85.44
72118;BME280;59992;47.490;8.736;2023-05-16T07:08:31;96286.46;;;13.27;86.33
72118;BME280;59992;47.490;8.736;2023-05-16T07:11:24;96280.20;;;13.35;83.74
72118;BME280;59992;47.490;8.736;2023-05-16T07:14:13;96285.05;;;13.44;81.69
72118;BME280;59992;47.490;8.736;2023-05-16T07:17:04;96285.09;;;13.57;82.36
72118;BME280;59992;47.490;8.736;2023-05-16T07:19:54;96284.90;;;13.65;83.49
72118;BME280;59992;47.490;8.736;2023-05-16T07:22:44;96283.28;;;13.71;83.95
72118;BME280;59992;47.490;8.736;2023-05-16T07:25:34;96284.80;;;13.74;81.27
72118;BME280;59992;47.490;8.736;2023-05-16T07:28:24;96287.83;;;13.78;80.65
72118;BME280;59992;47.490;8.736;2023-05-16T07:31:14;96290.31;;;13.82;81.76
72118;BME280;59992;47.490;8.736;2023-05-16T07:34:05;96287.30;;;13.76;79.71
72118;BME280;59992;47.490;8.736;2023-05-16T07:36:55;96285.64;;;13.74;80.26
72118;BME280;59992;47.490;8.736;2023-05-16T07:39:45;96286.99;;;13.78;81.45
72118;BME280;59992;47.490;8.736;2023-05-16T07:42:37;96290.40;;;13.82;79.94
72118;BME280;59992;47.490;8.736;2023-05-16T07:45:27;96291.73;;;13.92;81.98
72118;BME280;59992;47.490;8.736;2023-05-16T07:48:18;96293.42;;;14.02;82.64
72118;BME280;59992;47.490;8.736;2023-05-16T07:51:09;96293.99;;;14.12;80.30
72118;BME280;59992;47.490;8.736;2023-05-16T07:53:59;96289.71;;;14.31;80.61
72118;BME280;59992;47.490;8.736;2023-05-16T07:56:49;96290.51;;;14.50;79.35
72118;BME280;59992;47.490;8.736;2023-05-16T07:59:39;96291.48;;;14.65;76.85
72118;BME280;59992;47.490;8.736;2023-05-16T08:02:30;96293.41;;;14.72;75.56
72118;BME280;59992;47.490;8.736;2023-05-16T08:05:20;96296.59;;;14.74;74.99
72118;BME280;59992;47.490;8.736;2023-05-16T08:08:12;96296.10;;;14.88;76.45
72118;BME280;59992;47.490;8.736;2023-05-16T08:11:02;96295.15;;;15.02;76.54
72118;BME280;59992;47.490;8.736;2023-05-16T08:13:53;96294.48;;;15.16;76.42
72118;BME280;59992;47.490;8.736;2023-05-16T08:16:44;96296.08;;;15.24;75.36
72118;BME280;59992;47.490;8.736;2023-05-16T08:19:35;96296.20;;;15.28;74.80
72118;BME280;59992;47.490;8.736;2023-05-16T08:22:25;96296.76;;;15.33;76.40
72118;BME280;59992;47.490;8.736;2023-05-16T08:25:15;96299.35;;;15.25;74.86
72118;BME280;59992;47.490;8.736;2023-05-16T08:28:06;96295.98;;;15.19;74.25
72118;BME280;59992;47.490;8.736;2023-05-16T08:30:56;96297.66;;;15.02;71.76
72118;BME280;59992;47.490;8.736;2023-05-16T08:33:46;96294.32;;;14.91;72.90
72118;BME280;59992;47.490;8.736;2023-05-16T08:36:36;96298.21;;;14.91;74.84
72118;BME280;59992;47.490;8.736;2023-05-16T08:39:27;96293.92;;;14.92;76.05
72118;BME280;59992;47.490;8.736;2023-05-16T08:42:19;96294.21;;;14.95;75.82
72118;BME280;59992;47.490;8.736;2023-05-16T08:45:10;96294.99;;;14.93;74.18
72118;BME280;59992;47.490;8.736;2023-05-16T08:48:01;96295.96;;;14.95;76.34
72118;BME280;59992;47.490;8.736;2023-05-16T08:50:53;96292.84;;;14.95;75.03
72118;BME280;59992;47.490;8.736;2023-05-16T08:53:48;96293.52;;;15.04;75.86
72118;BME280;59992;47.490;8.736;2023-05-16T08:56:41;96285.80;;;15.16;74.22
72118;BME280;59992;47.490;8.736;2023-05-16T08:59:31;96285.99;;;15.34;75.01
72118;BME280;59992;47.490;8.736;2023-05-16T09:02:22;96283.41;;;15.51;75.27
72118;BME280;59992;47.490;8.736;2023-05-16T09:05:13;96276.25;;;15.69;73.85
72118;BME280;59992;47.490;8.736;2023-05-16T09:08:04;96265.20;;;15.79;73.27
72118;BME280;59992;47.490;8.736;2023-05-16T09:10:55;96262.93;;;15.72;72.92
72118;BME280;59992;47.490;8.736;2023-05-16T09:13:45;96272.95;;;15.57;74.05
72118;BME280;59992;47.490;8.736;2023-05-16T09:16:35;96279.02;;;15.45;73.20
72118;BME280;59992;47.490;8.736;2023-05-16T09:19:25;96286.89;;;15.30;73.32
72118;BME280;59992;47.490;8.736;2023-05-16T09:22:16;96288.30;;;15.08;72.09
72118;BME280;59992;47.490;8.736;2023-05-16T09:25:09;96281.94;;;14.75;71.14
72118;BME280;59992;47.490;8.736;2023-05-16T09:28:05;96284.73;;;14.49;71.87
72118;BME280;59992;47.490;8.736;2023-05-16T09:31:00;96283.10;;;14.26;71.47
72118;BME280;59992;47.490;8.736;2023-05-16T09:33:50;96283.13;;;14.07;72.91
72118;BME280;59992;47.490;8.736;2023-05-16T09:36:40;96281.42;;;13.81;75.28
72118;BME280;59992;47.490;8.736;2023-05-16T09:39:30;96289.45;;;13.71;77.74
72118;BME280;59992;47.490;8.736;2023-05-16T09:42:24;96278.89;;;13.43;80.73
72118;BME280;59992;47.490;8.736;2023-05-16T09:45:14;96278.02;;;13.27;82.48
72118;BME280;59992;47.490;8.736;2023-05-16T09:48:10;96278.20;;;13.15;83.42
72118;BME280;59992;47.490;8.736;2023-05-16T09:51:06;96276.91;;;13.06;84.53
72118;BME280;59992;47.490;8.736;2023-05-16T09:53:58;96278.27;;;12.98;87.16
72118;BME280;59992;47.490;8.736;2023-05-16T09:56:51;96280.77;;;12.91;86.39
72118;BME280;59992;47.490;8.736;2023-05-16T09:59:41;96273.41;;;12.76;88.30
72118;BME280;59992;47.490;8.736;2023-05-16T10:02:32;96269.09;;;12.69;87.02
72118;BME280;59992;47.490;8.736;2023-05-16T10:05:23;96273.78;;;12.58;87.22
72118;BME280;59992;47.490;8.736;2023-05-16T10:08:15;96282.45;;;12.49;88.41
72118;BME280;59992;47.490;8.736;2023-05-16T10:11:06;96290.73;;;12.47;88.27
72118;BME280;59992;47.490;8.736;2023-05-16T10:13:56;96290.11;;;12.41;91.01
72118;BME280;59992;47.490;8.736;2023-05-16T10:16:48;96286.15;;;12.37;91.11
72118;BME280;59992;47.490;8.736;2023-05-16T10:19:41;96280.91;;;12.36;89.73
72118;BME280;59992;47.490;8.736;2023-05-16T10:22:34;96282.80;;;12.37;88.30
72118;BME280;59992;47.490;8.736;2023-05-16T10:25:31;96280.83;;;12.33;91.46
72118;BME280;59992;47.490;8.736;2023-05-16T10:28:24;96277.95;;;12.33;90.59
72118;BME280;59992;47.490;8.736;2023-05-16T10:31:15;96281.14;;;12.33;91.86
72118;BME280;59992;47.490;8.736;2023-05-16T10:34:06;96281.82;;;12.34;90.00
72118;BME280;59992;47.490;8.736;2023-05-16T10:36:56;96280.98;;;12.34;92.56
72118;BME280;59992;47.490;8.736;2023-05-16T10:39:47;96280.23;;;12.33;93.11
72118;BME280;59992;47.490;8.736;2023-05-16T10:42:38;96280.02;;;12.35;90.90
72118;BME280;59992;47.490;8.736;2023-05-16T10:45:28;96280.67;;;12.37;90.10
72118;BME280;59992;47.490;8.736;2023-05-16T10:48:29;96276.73;;;12.38;90.25
72118;BME280;59992;47.490;8.736;2023-05-16T10:51:36;96274.02;;;12.37;90.96
72118;BME280;59992;47.490;8.736;2023-05-16T10:54:34;96276.05;;;12.36;94.28
72118;BME280;59992;47.490;8.736;2023-05-16T10:57:24;96283.56;;;12.36;93.01
72118;BME280;59992;47.490;8.736;2023-05-16T11:00:22;96285.31;;;12.33;91.55
72118;BME280;59992;47.490;8.736;2023-05-16T11:03:22;96287.89;;;12.31;91.71
72118;BME280;59992;47.490;8.736;2023-05-16T11:10:06;96290.08;;;12.24;91.11
72118;BME280;59992;47.490;8.736;2023-05-16T11:13:07;96294.02;;;12.23;93.03
72118;BME280;59992;47.490;8.736;2023-05-16T11:19:30;96302.77;;;12.24;94.90
72118;BME280;59992;47.490;8.736;2023-05-16T11:22:28;96303.66;;;12.23;93.29
72118;BME280;59992;47.490;8.736;2023-05-16T11:25:35;96298.04;;;12.18;95.80
72118;BME280;59992;47.490;8.736;2023-05-16T11:28:28;96302.12;;;12.13;96.09
72118;BME280;59992;47.490;8.736;2023-05-16T11:31:19;96304.39;;;12.10;93.02
72118;BME280;59992;47.490;8.736;2023-05-16T11:34:10;96308.55;;;12.04;91.61
72118;BME280;59992;47.490;8.736;2023-05-16T11:37:01;96316.81;;;12.01;90.80
72118;BME280;59992;47.490;8.736;2023-05-16T11:39:51;96320.21;;;11.98;90.27
72118;BME280;59992;47.490;8.736;2023-05-16T11:42:43;96319.00;;;11.97;91.27
72118;BME280;59992;47.490;8.736;2023-05-16T11:45:34;96321.05;;;11.97;94.58
72118;BME280;59992;47.490;8.736;2023-05-16T11:48:25;96322.35;;;11.98;95.45
72118;BME280;59992;47.490;8.736;2023-05-16T11:51:18;96314.98;;;11.99;95.69
72118;BME280;59992;47.490;8.736;2023-05-16T11:54:09;96307.01;;;11.96;93.85
72118;BME280;59992;47.490;8.736;2023-05-16T11:57:00;96325.77;;;12.03;92.68
72118;BME280;59992;47.490;8.736;2023-05-16T11:59:50;96328.44;;;12.06;92.94
72118;BME280;59992;47.490;8.736;2023-05-16T12:02:42;96332.48;;;12.10;90.98
72118;BME280;59992;47.490;8.736;2023-05-16T12:05:33;96336.73;;;12.12;90.73
72118;BME280;59992;47.490;8.736;2023-05-16T12:08:22;96339.32;;;12.15;90.22
72118;BME280;59992;47.490;8.736;2023-05-16T12:11:13;96339.20;;;12.18;88.58
72118;BME280;59992;47.490;8.736;2023-05-16T12:14:03;96338.98;;;12.26;88.86
72118;BME280;59992;47.490;8.736;2023-05-16T12:16:54;96339.84;;;12.32;88.72
72118;BME280;59992;47.490;8.736;2023-05-16T12:19:45;96342.19;;;12.35;89.07
72118;BME280;59992;47.490;8.736;2023-05-16T12:22:35;96337.79;;;12.30;88.71
72118;BME280;59992;47.490;8.736;2023-05-16T12:25:29;96340.30;;;12.35;88.41
72118;BME280;59992;47.490;8.736;2023-05-16T12:28:19;96347.74;;;12.36;88.24
72118;BME280;59992;47.490;8.736;2023-05-16T12:31:19;96354.66;;;12.38;86.77
72118;BME280;59992;47.490;8.736;2023-05-16T12:34:20;96358.16;;;12.38;87.20
72118;BME280;59992;47.490;8.736;2023-05-16T12:37:11;96356.73;;;12.43;88.06
72118;BME280;59992;47.490;8.736;2023-05-16T12:40:01;96360.98;;;12.49;87.27
72118;BME280;59992;47.490;8.736;2023-05-16T12:42:55;96358.27;;;12.50;85.55
72118;BME280;59992;47.490;8.736;2023-05-16T12:45:51;96361.52;;;12.51;85.02
72118;BME280;59992;47.490;8.736;2023-05-16T12:48:42;96359.41;;;12.56;84.93
72118;BME280;59992;47.490;8.736;2023-05-16T12:51:33;96357.58;;;12.57;83.48
72118;BME280;59992;47.490;8.736;2023-05-16T12:54:24;96360.17;;;12.60;84.33
72118;BME280;59992;47.490;8.736;2023-05-16T12:57:14;96360.63;;;12.62;84.68
72118;BME280;59992;47.490;8.736;2023-05-16T13:00:05;96367.09;;;12.64;84.89
72118;BME280;59992;47.490;8.736;2023-05-16T13:02:59;96367.27;;;12.68;83.80
72118;BME280;59992;47.490;8.736;2023-05-16T13:05:49;96368.55;;;12.72;83.01
72118;BME280;59992;47.490;8.736;2023-05-16T13:08:40;96367.41;;;12.73;82.90
72118;BME280;59992;47.490;8.736;2023-05-16T13:11:30;96372.96;;;12.74;82.44
72118;BME280;59992;47.490;8.736;2023-05-16T13:14:21;96370.84;;;12.75;82.33
72118;BME280;59992;47.490;8.736;2023-05-16T13:17:11;96373.49;;;12.76;83.14
72118;BME280;59992;47.490;8.736;2023-05-16T13:20:02;96368.86;;;12.78;82.82
72118;BME280;59992;47.490;8.736;2023-05-16T13:22:56;96370.84;;;12.78;82.17
72118;BME280;59992;47.490;8.736;2023-05-16T13:25:46;96372.96;;;12.78;82.60
72118;BME280;59992;47.490;8.736;2023-05-16T13:28:36;96372.98;;;12.82;84.19
72118;BME280;59992;47.490;8.736;2023-05-16T13:31:26;96375.86;;;12.83;83.43
72118;BME280;59992;47.490;8.736;2023-05-16T13:34:17;96379.28;;;12.84;82.98
72118;BME280;59992;47.490;8.736;2023-05-16T13:37:07;96381.25;;;12.82;83.19
72118;BME280;59992;47.490;8.736;2023-05-16T13:39:58;96383.83;;;12.77;83.34
72118;BME280;59992;47.490;8.736;2023-05-16T13:42:47;96384.50;;;12.71;83.34
72118;BME280;59992;47.490;8.736;2023-05-16T13:45:37;96386.70;;;12.64;83.72
72118;BME280;59992;47.490;8.736;2023-05-16T13:48:27;96389.02;;;12.55;84.97
72118;BME280;59992;47.490;8.736;2023-05-16T13:51:18;96392.14;;;12.49;83.73
72118;BME280;59992;47.490;8.736;2023-05-16T13:54:08;96396.01;;;12.45;83.60
72118;BME280;59992;47.490;8.736;2023-05-16T13:56:58;96396.98;;;12.41;84.70
72118;BME280;59992;47.490;8.736;2023-05-16T13:59:49;96402.65;;;12.36;86.13
72118;BME280;59992;47.490;8.736;2023-05-16T14:02:39;96402.71;;;12.29;84.34
72118;BME280;59992;47.490;8.736;2023-05-16T14:05:30;96408.06;;;12.21;85.00
72118;BME280;59992;47.490;8.736;2023-05-16T14:08:20;96407.66;;;12.14;84.45
72118;BME280;59992;47.490;8.736;2023-05-16T14:11:10;96406.63;;;12.06;84.83
72118;BME280;59992;47.490;8.736;2023-05-16T14:14:00;96411.17;;;12.02;84.99
72118;BME280;59992;47.490;8.736;2023-05-16T14:16:50;96414.10;;;11.97;84.61
72118;BME280;59992;47.490;8.736;2023-05-16T14:19:40;96415.47;;;11.96;85.59
72118;BME280;59992;47.490;8.736;2023-05-16T14:22:31;96416.06;;;11.93;86.16
72118;BME280;59992;47.490;8.736;2023-05-16T14:25:21;96413.77;;;11.93;85.30
72118;BME280;59992;47.490;8.736;2023-05-16T14:28:11;96417.04;;;11.94;85.52
72118;BME280;59992;47.490;8.736;2023-05-16T14:31:02;96417.20;;;11.94;85.73
72118;BME280;59992;47.490;8.736;2023-05-16T14:33:52;96416.83;;;11.93;86.90
72118;BME280;59992;47.490;8.736;2023-05-16T14:36:42;96415.66;;;11.91;86.70
72118;BME280;59992;47.490;8.736;2023-05-16T14:39:33;96421.87;;;11.88;84.80
72118;BME280;59992;47.490;8.736;2023-05-16T14:42:23;96416.71;;;11.88;84.59
72118;BME280;59992;47.490;8.736;2023-05-16T14:45:14;96414.47;;;11.93;86.61
72118;BME280;59992;47.490;8.736;2023-05-16T14:48:05;96416.83;;;11.97;87.75
72118;BME280;59992;47.490;8.736;2023-05-16T14:50:56;96421.61;;;11.98;86.58
72118;BME280;59992;47.490;8.736;2023-05-16T14:53:46;96425.27;;;11.97;84.68
72118;BME280;59992;47.490;8.736;2023-05-16T14:56:37;96424.41;;;11.92;85.89
72118;BME280;59992;47.490;8.736;2023-05-16T14:59:27;96424.89;;;11.85;85.15
72118;BME280;59992;47.490;8.736;2023-05-16T15:02:17;96426.69;;;11.81;85.82
72118;BME280;59992;47.490;8.736;2023-05-16T15:05:11;96425.17;;;11.81;88.56
72118;BME280;59992;47.490;8.736;2023-05-16T15:11:23;96429.22;;;11.86;86.43
72118;BME280;59992;47.490;8.736;2023-05-16T15:17:24;96427.38;;;11.97;85.78